Time;durP1;ratioP1;P1;durP2;ratioP2;P2;SDS_P1;SDS_P2;PMS_P1;PMS_P2;Temp;Humidity;BMP_temperature;BMP_pressure;BME280_temperature;BME280_humidity;BME280_pressure;Samples;Min_cycle;Max_cycle;Signal;HPM_P1;HPM_P2
2021/07/21 00:01:20;;;;;;;;;;;22.30;56.60;;;;;;5045546;28;19933;-81
2021/07/21 00:03:46;;;;;;;;;;;22.20;57.20;;;;;;5043575;28;19933;-81
2021/07/21 00:06:13;;;;;;;;;;;22.20;57.30;;;;;;5043536;28;19972;-80
2021/07/21 00:08:40;;;;;;;;;;;22.20;57.40;;;;;;5038931;28;19929;-80
2021/07/21 00:13:53;;;;;;;;;;;22.00;57.30;;;;;;5043265;28;20539;-80
2021/07/21 00:16:27;;;;;;;;;;;22.00;58.00;;;;;;5038285;28;19928;-80
2021/07/21 00:18:58;;;;;;;;;;;22.10;57.80;;;;;;5049502;28;19935;-80
2021/07/21 00:21:25;;;;;;;;;;;22.10;57.70;;;;;;5039974;28;19929;-81
2021/07/21 00:23:52;;;;;;;;;;;22.00;57.60;;;;;;5042128;28;19964;-80
2021/07/21 00:26:19;;;;;;;;;;;21.80;57.50;;;;;;5038038;28;20011;-81
2021/07/21 00:28:46;;;;;;;;;;;21.80;58.00;;;;;;5044271;28;20299;-80
2021/07/21 00:31:15;;;;;;;;;;;21.70;58.10;;;;;;5040741;28;20375;-80
2021/07/21 00:33:43;;;;;;;;;;;21.70;58.30;;;;;;5045977;28;19925;-80
2021/07/21 00:36:11;;;;;;;;;;;21.80;58.10;;;;;;5041210;28;19947;-81
2021/07/21 00:38:38;;;;;;;;;;;21.80;57.60;;;;;;5049086;28;20382;-81
2021/07/21 00:41:04;;;;;;;;;;;21.90;58.50;;;;;;5045893;28;20007;-81
2021/07/21 00:43:31;;;;;;;;;;;21.90;58.30;;;;;;5041105;28;19960;-80
2021/07/21 00:45:58;;;;;;;;;;;21.90;57.80;;;;;;5041495;28;20007;-81
2021/07/21 00:48:25;;;;;;;;;;;21.90;58.00;;;;;;5042104;28;19929;-80
2021/07/21 00:50:53;;;;;;;;;;;21.90;58.00;;;;;;5040467;28;20451;-80
2021/07/21 00:53:20;;;;;;;;;;;21.80;57.40;;;;;;5044234;28;20042;-80
2021/07/21 00:55:47;;;;;;;;;;;21.80;58.00;;;;;;5058266;28;20016;-81
2021/07/21 00:58:14;;;;;;;;;;;21.80;58.00;;;;;;5049123;28;19986;-80
2021/07/21 01:00:41;;;;;;;;;;;21.90;57.30;;;;;;5038169;28;19964;-80
2021/07/21 01:03:08;;;;;;;;;;;21.80;57.60;;;;;;5053721;28;19931;-80
2021/07/21 01:05:41;;;;;;;;;;;21.70;57.30;;;;;;5049275;28;19964;-80
2021/07/21 01:08:12;;;;;;;;;;;21.80;58.20;;;;;;5042547;28;19925;-80
2021/07/21 01:10:43;;;;;;;;;;;21.80;58.00;;;;;;5043049;28;19932;-80
2021/07/21 01:13:14;;;;;;;;;;;21.80;57.80;;;;;;5045072;28;19964;-80
2021/07/21 01:15:41;;;;;;;;;;;21.80;57.30;;;;;;5049251;28;20012;-80
2021/07/21 01:18:10;;;;;;;;;;;21.70;57.20;;;;;;5049828;28;19925;-80
2021/07/21 01:20:37;;;;;;;;;;;21.70;57.30;;;;;;5042976;28;20027;-81
2021/07/21 01:23:22;;;;;;;;;;;21.70;57.10;;;;;;5049364;28;19979;-81
2021/07/21 01:26:08;;;;;;;;;;;21.70;58.00;;;;;;5042447;28;19925;-81
2021/07/21 01:28:35;;;;;;;;;;;21.80;57.60;;;;;;5047225;28;19932;-80
2021/07/21 01:31:04;;;;;;;;;;;21.80;58.00;;;;;;5048234;28;19965;-81
2021/07/21 01:33:31;;;;;;;;;;;21.80;57.30;;;;;;5043217;28;20004;-81
2021/07/21 01:35:59;;;;;;;;;;;21.50;57.60;;;;;;5045111;28;20032;-81
2021/07/21 01:38:32;;;;;;;;;;;21.50;58.30;;;;;;5039833;28;19957;-80
2021/07/21 01:41:01;;;;;;;;;;;21.60;58.00;;;;;;5049637;28;20019;-81
2021/07/21 01:43:29;;;;;;;;;;;21.70;59.00;;;;;;5046071;28;19968;-81
2021/07/21 01:45:58;;;;;;;;;;;21.70;57.60;;;;;;5061959;28;20345;-80
2021/07/21 01:48:25;;;;;;;;;;;21.80;58.20;;;;;;5041667;28;20019;-81
2021/07/21 01:50:55;;;;;;;;;;;21.90;57.30;;;;;;5046862;28;20324;-80
2021/07/21 01:53:22;;;;;;;;;;;21.80;57.20;;;;;;5051170;28;19968;-79
2021/07/21 01:55:49;;;;;;;;;;;21.80;57.90;;;;;;5039921;28;20052;-79
2021/07/21 01:58:16;;;;;;;;;;;21.80;57.80;;;;;;5042494;28;21751;-79
2021/07/21 02:00:43;;;;;;;;;;;21.80;57.40;;;;;;5044832;28;19971;-79
2021/07/21 02:03:10;;;;;;;;;;;21.80;57.40;;;;;;5046510;28;19947;-80
2021/07/21 02:05:38;;;;;;;;;;;21.50;57.70;;;;;;5044445;28;19925;-79
2021/07/21 02:08:06;;;;;;;;;;;21.60;57.80;;;;;;5038280;28;19968;-80
2021/07/21 02:10:33;;;;;;;;;;;21.60;58.10;;;;;;5037419;28;20452;-79
2021/07/21 02:13:07;;;;;;;;;;;21.70;58.30;;;;;;5041895;28;20569;-79
2021/07/21 02:15:34;;;;;;;;;;;21.60;58.10;;;;;;5041017;28;20011;-80
2021/07/21 02:18:01;;;;;;;;;;;21.70;58.10;;;;;;5042978;28;20012;-80
2021/07/21 02:20:28;;;;;;;;;;;21.70;58.70;;;;;;5049041;28;20016;-80
2021/07/21 02:22:55;;;;;;;;;;;21.80;58.60;;;;;;5047460;28;19952;-80
2021/07/21 02:25:22;;;;;;;;;;;21.60;57.70;;;;;;5048295;28;19932;-80
2021/07/21 02:27:49;;;;;;;;;;;21.50;58.30;;;;;;5045075;28;20012;-80
2021/07/21 02:30:16;;;;;;;;;;;21.50;58.30;;;;;;5045132;28;20007;-80
2021/07/21 02:33:01;;;;;;;;;;;21.50;58.50;;;;;;5043762;28;19964;-79
2021/07/21 02:35:28;;;;;;;;;;;21.50;58.00;;;;;;5061384;28;19967;-79
2021/07/21 02:37:57;;;;;;;;;;;21.60;58.00;;;;;;5041934;28;20012;-79
2021/07/21 02:40:24;;;;;;;;;;;21.50;58.70;;;;;;5046226;28;19979;-78
2021/07/21 02:42:52;;;;;;;;;;;21.40;58.10;;;;;;5043749;28;20430;-79
2021/07/21 02:45:19;;;;;;;;;;;21.30;58.50;;;;;;5039468;28;19925;-79
2021/07/21 02:47:46;;;;;;;;;;;21.40;58.30;;;;;;5039623;28;19967;-79
2021/07/21 02:50:15;;;;;;;;;;;21.40;58.60;;;;;;5040216;28;20019;-79
2021/07/21 02:52:46;;;;;;;;;;;21.40;58.50;;;;;;5044307;28;20366;-78
2021/07/21 02:55:15;;;;;;;;;;;21.30;58.70;;;;;;5042628;28;19971;-79
2021/07/21 02:57:44;;;;;;;;;;;21.20;58.70;;;;;;5057965;28;19983;-80
2021/07/21 03:00:15;;;;;;;;;;;21.30;59.40;;;;;;5047106;28;20100;-84
2021/07/21 03:02:43;;;;;;;;;;;21.40;59.00;;;;;;5046762;28;19983;-83
2021/07/21 03:05:12;;;;;;;;;;;21.40;58.40;;;;;;5044130;28;19925;-84
2021/07/21 03:07:40;;;;;;;;;;;21.20;58.50;;;;;;5047918;28;20007;-84
2021/07/21 03:10:10;;;;;;;;;;;21.20;59.00;;;;;;5046398;28;20015;-84
2021/07/21 03:12:38;;;;;;;;;;;21.20;59.10;;;;;;5042069;28;20035;-84
2021/07/21 03:15:06;;;;;;;;;;;21.20;58.70;;;;;;5048645;28;19925;-84
2021/07/21 03:17:36;;;;;;;;;;;21.10;60.00;;;;;;5044105;28;20347;-80
2021/07/21 03:20:05;;;;;;;;;;;21.20;58.50;;;;;;5047071;28;19968;-82
2021/07/21 03:22:32;;;;;;;;;;;20.90;58.70;;;;;;5047001;28;20449;-86
2021/07/21 03:25:00;;;;;;;;;;;20.90;59.20;;;;;;5042676;28;20364;-82
2021/07/21 03:27:27;;;;;;;;;;;21.10;59.00;;;;;;5046280;28;20209;-81
2021/07/21 03:29:56;;;;;;;;;;;21.00;59.00;;;;;;5049468;28;20023;-82
2021/07/21 03:32:24;;;;;;;;;;;21.10;59.00;;;;;;5046403;28;19940;-82
2021/07/21 03:34:52;;;;;;;;;;;21.10;58.70;;;;;;5043867;28;20295;-81
2021/07/21 03:37:20;;;;;;;;;;;21.20;58.90;;;;;;5045611;28;20279;-77
2021/07/21 03:39:52;;;;;;;;;;;21.00;58.60;;;;;;5045302;28;20012;-77
2021/07/21 03:42:19;;;;;;;;;;;20.80;58.80;;;;;;5039001;28;19968;-77
2021/07/21 03:44:46;;;;;;;;;;;20.70;59.00;;;;;;5048879;28;20426;-77
2021/07/21 03:47:16;;;;;;;;;;;20.80;59.00;;;;;;5048640;28;20011;-77
2021/07/21 03:49:43;;;;;;;;;;;20.90;58.60;;;;;;5037596;28;20026;-77
2021/07/21 03:52:11;;;;;;;;;;;21.00;58.80;;;;;;5049453;28;20013;-82
2021/07/21 03:54:38;;;;;;;;;;;21.00;58.60;;;;;;5048456;28;20019;-82
2021/07/21 03:57:05;;;;;;;;;;;21.10;58.70;;;;;;5050815;28;20055;-82
2021/07/21 03:59:32;;;;;;;;;;;21.10;59.00;;;;;;5048926;28;20015;-77
2021/07/21 04:02:00;;;;;;;;;;;21.10;58.50;;;;;;5047934;28;20051;-77
2021/07/21 04:04:30;;;;;;;;;;;20.90;58.30;;;;;;5045901;28;19931;-76
2021/07/21 04:06:57;;;;;;;;;;;21.00;59.00;;;;;;5047618;28;19928;-77
2021/07/21 04:09:28;;;;;;;;;;;21.00;58.60;;;;;;5046224;28;19951;-77
2021/07/21 04:11:56;;;;;;;;;;;21.00;58.80;;;;;;5039447;28;19928;-77
2021/07/21 04:14:23;;;;;;;;;;;21.20;58.60;;;;;;5038677;28;19986;-78
2021/07/21 04:16:51;;;;;;;;;;;21.10;58.80;;;;;;5044056;28;20019;-78
2021/07/21 04:19:18;;;;;;;;;;;21.20;59.30;;;;;;5037185;28;20340;-77
2021/07/21 04:21:47;;;;;;;;;;;21.00;58.90;;;;;;5048255;28;19975;-77
2021/07/21 04:24:14;;;;;;;;;;;21.00;58.70;;;;;;5045074;28;20052;-77
2021/07/21 04:26:42;;;;;;;;;;;21.00;58.90;;;;;;5038819;28;19968;-77
2021/07/21 04:29:15;;;;;;;;;;;21.00;58.80;;;;;;5038560;28;19925;-76
2021/07/21 04:31:43;;;;;;;;;;;21.00;58.80;;;;;;5043015;28;20370;-77
2021/07/21 04:34:11;;;;;;;;;;;21.00;58.80;;;;;;5038709;28;19925;-77
2021/07/21 04:36:39;;;;;;;;;;;20.90;58.70;;;;;;5049345;28;19980;-76
2021/07/21 04:39:06;;;;;;;;;;;21.00;59.00;;;;;;5051427;28;20012;-77
2021/07/21 04:41:33;;;;;;;;;;;21.10;58.50;;;;;;5052896;28;20547;-77
2021/07/21 04:44:03;;;;;;;;;;;21.10;59.00;;;;;;5051763;28;20439;-76
2021/07/21 04:46:31;;;;;;;;;;;21.10;58.80;;;;;;5051532;28;19968;-76
2021/07/21 04:48:58;;;;;;;;;;;21.10;58.80;;;;;;5051280;28;19983;-77
2021/07/21 04:51:25;;;;;;;;;;;21.00;58.40;;;;;;5050869;28;20375;-77
2021/07/21 04:53:53;;;;;;;;;;;21.00;58.60;;;;;;5051089;28;19963;-77
2021/07/21 04:56:21;;;;;;;;;;;21.10;58.80;;;;;;5051519;28;20339;-77
2021/07/21 04:58:48;;;;;;;;;;;21.00;58.50;;;;;;5048969;28;20051;-77
2021/07/21 05:01:15;;;;;;;;;;;20.90;58.60;;;;;;5052726;28;19968;-76
2021/07/21 05:03:42;;;;;;;;;;;20.80;58.80;;;;;;5052164;28;19934;-76
2021/07/21 05:06:09;;;;;;;;;;;20.80;59.10;;;;;;5047758;28;19967;-76
2021/07/21 05:08:35;;;;;;;;;;;20.80;58.70;;;;;;5052853;28;23176;-76
2021/07/21 05:11:02;;;;;;;;;;;20.90;59.00;;;;;;5049546;28;20011;-76
2021/07/21 05:13:29;;;;;;;;;;;20.90;58.60;;;;;;5043206;28;20011;-76
2021/07/21 05:15:55;;;;;;;;;;;20.80;58.80;;;;;;5050319;28;19979;-76
2021/07/21 05:18:22;;;;;;;;;;;20.90;59.00;;;;;;5044697;28;20012;-76
2021/07/21 05:20:49;;;;;;;;;;;21.00;59.10;;;;;;5050789;28;19964;-77
2021/07/21 05:23:16;;;;;;;;;;;21.00;58.30;;;;;;5052570;28;19967;-77
2021/07/21 05:25:45;;;;;;;;;;;20.90;58.50;;;;;;5047522;28;20031;-77
2021/07/21 05:28:12;;;;;;;;;;;20.70;58.60;;;;;;5050069;28;19975;-76
2021/07/21 05:30:39;;;;;;;;;;;20.80;58.60;;;;;;5050300;28;20049;-77
2021/07/21 05:33:06;;;;;;;;;;;20.60;59.00;;;;;;5048429;28;20003;-76
2021/07/21 05:35:32;;;;;;;;;;;20.60;58.90;;;;;;5042435;28;19972;-76
2021/07/21 05:38:00;;;;;;;;;;;20.60;58.80;;;;;;5061621;28;19925;-76
2021/07/21 05:40:27;;;;;;;;;;;20.60;59.40;;;;;;5045466;28;20015;-76
2021/07/21 05:42:54;;;;;;;;;;;20.80;59.30;;;;;;5041836;28;20023;-77
2021/07/21 05:45:21;;;;;;;;;;;20.90;59.20;;;;;;5037149;28;20007;-76
2021/07/21 05:47:47;;;;;;;;;;;20.80;59.00;;;;;;5044713;28;20031;-76
2021/07/21 05:50:18;;;;;;;;;;;20.70;58.60;;;;;;5060963;28;20011;-77
2021/07/21 05:52:44;;;;;;;;;;;20.70;59.50;;;;;;5040692;28;19972;-75
2021/07/21 05:55:14;;;;;;;;;;;20.80;58.80;;;;;;5040485;28;20027;-77
2021/07/21 05:57:44;;;;;;;;;;;20.80;59.00;;;;;;5041220;28;19971;-75
2021/07/21 06:00:14;;;;;;;;;;;20.70;58.70;;;;;;5039809;28;19972;-75
2021/07/21 06:02:41;;;;;;;;;;;20.70;59.50;;;;;;5049013;28;19925;-77
2021/07/21 06:05:09;;;;;;;;;;;20.90;58.70;;;;;;5041223;28;19965;-80
2021/07/21 06:07:37;;;;;;;;;;;21.00;58.70;;;;;;5040371;28;20390;-80
2021/07/21 06:10:05;;;;;;;;;;;20.90;58.90;;;;;;5040149;28;20008;-80
2021/07/21 06:12:32;;;;;;;;;;;21.00;59.90;;;;;;5043801;28;19957;-79
2021/07/21 06:14:59;;;;;;;;;;;21.10;58.80;;;;;;5049799;28;19925;-79
2021/07/21 06:17:26;;;;;;;;;;;21.00;58.80;;;;;;5045835;28;19924;-78
2021/07/21 06:19:53;;;;;;;;;;;21.10;59.30;;;;;;5034087;28;19929;-79
2021/07/21 06:22:20;;;;;;;;;;;21.10;58.40;;;;;;5049973;28;19972;-77
2021/07/21 06:24:47;;;;;;;;;;;21.10;58.70;;;;;;5042696;28;19933;-79
2021/07/21 06:27:14;;;;;;;;;;;21.20;59.20;;;;;;5041238;28;20020;-79
2021/07/21 06:29:41;;;;;;;;;;;21.10;59.50;;;;;;5040822;28;20319;-78
2021/07/21 06:32:07;;;;;;;;;;;21.20;59.40;;;;;;5040613;28;19987;-79
2021/07/21 06:34:34;;;;;;;;;;;21.10;58.30;;;;;;5039671;28;20630;-79
2021/07/21 06:37:01;;;;;;;;;;;21.10;58.70;;;;;;5044698;28;20019;-79
2021/07/21 06:39:27;;;;;;;;;;;21.20;59.10;;;;;;5041825;28;20007;-80
2021/07/21 06:41:54;;;;;;;;;;;21.20;59.40;;;;;;5046095;28;20035;-80
2021/07/21 06:44:24;;;;;;;;;;;21.20;59.10;;;;;;5040978;28;19971;-78
2021/07/21 06:46:51;;;;;;;;;;;21.20;59.90;;;;;;5043177;28;20024;-79
2021/07/21 06:49:20;;;;;;;;;;;21.30;59.50;;;;;;5049966;28;20284;-80
2021/07/21 06:51:46;;;;;;;;;;;21.30;59.20;;;;;;5046788;28;20469;-79
2021/07/21 06:54:13;;;;;;;;;;;21.20;59.40;;;;;;5047514;28;19960;-78
2021/07/21 06:56:40;;;;;;;;;;;21.10;59.60;;;;;;5047813;28;20242;-78
2021/07/21 06:59:07;;;;;;;;;;;21.10;60.20;;;;;;5043132;28;19960;-79
2021/07/21 07:01:33;;;;;;;;;;;21.10;59.40;;;;;;5042692;28;19971;-79
2021/07/21 07:04:00;;;;;;;;;;;21.20;59.50;;;;;;5048515;28;19924;-80
2021/07/21 07:06:27;;;;;;;;;;;21.10;59.50;;;;;;5055696;28;19925;-79
2021/07/21 07:08:54;;;;;;;;;;;21.30;58.80;;;;;;5050745;28;19963;-78
2021/07/21 07:11:22;;;;;;;;;;;21.30;58.50;;;;;;5044929;28;19925;-78
2021/07/21 07:13:52;;;;;;;;;;;21.30;58.40;;;;;;5043519;28;19925;-79
2021/07/21 07:16:19;;;;;;;;;;;21.20;58.60;;;;;;5050881;28;19928;-79
2021/07/21 07:18:46;;;;;;;;;;;21.30;58.20;;;;;;5046074;28;20285;-78
2021/07/21 07:21:13;;;;;;;;;;;21.20;58.70;;;;;;5047977;28;19959;-79
2021/07/21 07:23:39;;;;;;;;;;;21.30;58.90;;;;;;5048299;28;20043;-82
2021/07/21 07:26:06;;;;;;;;;;;21.40;59.00;;;;;;5040012;28;20074;-74
2021/07/21 07:28:33;;;;;;;;;;;21.50;59.10;;;;;;5039713;28;20012;-75
2021/07/21 07:30:59;;;;;;;;;;;21.50;58.80;;;;;;5039439;28;19929;-79
2021/07/21 07:33:26;;;;;;;;;;;21.60;60.20;;;;;;5039033;28;20336;-76
2021/07/21 07:35:53;;;;;;;;;;;21.60;59.80;;;;;;5045293;28;19931;-77
2021/07/21 07:38:20;;;;;;;;;;;21.60;60.00;;;;;;5036691;28;20019;-76
2021/07/21 07:40:46;;;;;;;;;;;21.70;61.40;;;;;;5038631;28;19924;-77
2021/07/21 07:43:13;;;;;;;;;;;21.60;58.60;;;;;;5048723;28;20379;-76
2021/07/21 07:45:40;;;;;;;;;;;21.50;58.80;;;;;;5046868;28;20338;-77
2021/07/21 07:48:07;;;;;;;;;;;21.60;58.80;;;;;;5040146;28;19961;-76
2021/07/21 07:50:33;;;;;;;;;;;21.60;59.60;;;;;;5043352;28;19969;-78
2021/07/21 07:53:00;;;;;;;;;;;21.70;60.40;;;;;;5044342;28;19925;-81
2021/07/21 07:55:29;;;;;;;;;;;21.70;59.10;;;;;;5040248;28;19933;-76
2021/07/21 07:57:55;;;;;;;;;;;21.70;59.70;;;;;;5042470;28;20442;-76
2021/07/21 08:00:22;;;;;;;;;;;21.80;58.70;;;;;;5050414;28;19924;-77
2021/07/21 08:02:49;;;;;;;;;;;21.70;59.00;;;;;;5043650;28;19933;-74
2021/07/21 08:05:16;;;;;;;;;;;21.70;58.80;;;;;;5054005;28;19929;-74
2021/07/21 08:07:42;;;;;;;;;;;21.70;59.40;;;;;;5044035;28;20376;-75
2021/07/21 08:10:13;;;;;;;;;;;21.70;58.50;;;;;;5041890;28;19951;-73
2021/07/21 08:12:42;;;;;;;;;;;21.80;59.40;;;;;;5048353;28;20023;-74
2021/07/21 08:15:12;;;;;;;;;;;21.80;59.60;;;;;;5044543;28;20379;-71
2021/07/21 08:17:39;;;;;;;;;;;21.80;59.50;;;;;;5036273;28;19939;-74
2021/07/21 08:20:07;;;;;;;;;;;21.80;59.00;;;;;;5035635;28;20654;-72
2021/07/21 08:22:39;;;;;;;;;;;21.90;58.20;;;;;;5036350;28;19939;-72
2021/07/21 08:25:09;;;;;;;;;;;21.80;57.70;;;;;;5036947;28;19933;-72
2021/07/21 08:27:35;;;;;;;;;;;21.90;58.70;;;;;;5060212;28;20031;-72
2021/07/21 08:30:04;;;;;;;;;;;21.80;57.50;;;;;;5035527;28;19936;-71
2021/07/21 08:32:32;;;;;;;;;;;21.90;57.30;;;;;;5039050;28;19931;-72
2021/07/21 08:35:00;;;;;;;;;;;22.00;59.00;;;;;;5035363;28;20006;-72
2021/07/21 08:37:28;;;;;;;;;;;22.00;57.50;;;;;;5035406;28;19940;-72
2021/07/21 08:39:55;;;;;;;;;;;22.00;58.40;;;;;;5031710;28;19933;-73
2021/07/21 08:42:25;;;;;;;;;;;21.90;57.30;;;;;;5035341;28;19978;-73
2021/07/21 08:44:52;;;;;;;;;;;22.00;57.50;;;;;;5036054;28;20808;-73
2021/07/21 08:47:19;;;;;;;;;;;22.00;56.10;;;;;;5032857;28;20403;-71
2021/07/21 08:49:46;;;;;;;;;;;22.00;56.60;;;;;;5035980;28;20438;-71
2021/07/21 08:52:15;;;;;;;;;;;22.10;57.00;;;;;;5035646;28;19951;-72
2021/07/21 08:54:46;;;;;;;;;;;22.10;56.90;;;;;;5033840;28;19939;-72
2021/07/21 08:57:14;;;;;;;;;;;22.00;55.60;;;;;;5026618;28;19936;-72
2021/07/21 08:59:44;;;;;;;;;;;22.00;56.40;;;;;;5028336;28;19933;-72
2021/07/21 09:02:14;;;;;;;;;;;22.10;58.60;;;;;;5027125;28;20009;-73
2021/07/21 09:04:43;;;;;;;;;;;22.10;56.50;;;;;;5027644;28;19939;-72
2021/07/21 09:07:11;;;;;;;;;;;22.20;58.40;;;;;;5028210;28;20078;-72
2021/07/21 09:09:58;;;;;;;;;;;22.20;57.00;;;;;;5027568;28;19933;-71
2021/07/21 09:12:26;;;;;;;;;;;22.20;59.80;;;;;;5027042;28;21049;-71
2021/07/21 09:14:53;;;;;;;;;;;22.20;57.10;;;;;;5027896;28;20047;-72
2021/07/21 09:17:22;;;;;;;;;;;22.30;56.70;;;;;;5030210;28;20313;-71
2021/07/21 09:19:50;;;;;;;;;;;22.30;57.40;;;;;;5028737;28;20966;-71
2021/07/21 09:22:28;;;;;;;;;;;22.30;59.80;;;;;;5027014;28;19975;-71
2021/07/21 09:25:10;;;;;;;;;;;22.30;60.50;;;;;;5032016;28;20291;-71
2021/07/21 09:27:40;;;;;;;;;;;22.40;60.70;;;;;;5026681;28;20137;-71
2021/07/21 09:30:08;;;;;;;;;;;22.40;60.40;;;;;;5028383;28;19938;-71
2021/07/21 09:32:54;;;;;;;;;;;22.40;58.70;;;;;;5032106;28;19968;-71
2021/07/21 09:35:22;;;;;;;;;;;22.40;57.80;;;;;;5030503;28;19929;-71
2021/07/21 09:37:49;;;;;;;;;;;22.40;59.10;;;;;;5031954;28;20262;-71
2021/07/21 09:40:17;;;;;;;;;;;22.50;60.10;;;;;;5030101;28;19933;-71
2021/07/21 09:42:44;;;;;;;;;;;22.50;58.80;;;;;;5030491;28;20045;-70
2021/07/21 09:45:12;;;;;;;;;;;22.50;61.20;;;;;;5029288;28;20398;-72
2021/07/21 09:47:47;;;;;;;;;;;22.50;56.80;;;;;;5029427;28;19940;-71
2021/07/21 09:50:15;;;;;;;;;;;22.60;58.00;;;;;;5029866;28;19933;-71
2021/07/21 09:52:46;;;;;;;;;;;22.60;58.40;;;;;;5030559;28;19933;-71
2021/07/21 09:55:15;;;;;;;;;;;22.60;57.30;;;;;;5028298;28;19928;-71
2021/07/21 09:57:43;;;;;;;;;;;22.60;56.70;;;;;;5028013;28;19981;-71
2021/07/21 10:00:25;;;;;;;;;;;22.60;60.40;;;;;;5029335;28;20406;-71
2021/07/21 10:03:06;;;;;;;;;;;22.60;59.30;;;;;;5030603;28;19936;-71
2021/07/21 10:05:33;;;;;;;;;;;22.60;59.20;;;;;;5030097;28;20024;-71
2021/07/21 10:08:03;;;;;;;;;;;22.60;57.50;;;;;;5032620;28;19933;-71
2021/07/21 10:10:30;;;;;;;;;;;22.70;57.70;;;;;;5026454;28;19933;-71
2021/07/21 10:13:07;;;;;;;;;;;22.70;58.40;;;;;;5028666;28;19929;-71
2021/07/21 10:15:34;;;;;;;;;;;22.70;58.50;;;;;;5030824;28;19933;-71
2021/07/21 10:18:15;;;;;;;;;;;22.70;56.90;;;;;;5028902;28;20008;-71
2021/07/21 10:20:44;;;;;;;;;;;22.80;57.90;;;;;;5029904;28;19937;-71
2021/07/21 10:23:15;;;;;;;;;;;22.70;56.50;;;;;;5030514;28;20379;-71
2021/07/21 10:25:42;;;;;;;;;;;22.70;59.10;;;;;;5028317;28;19943;-71
2021/07/21 10:28:09;;;;;;;;;;;22.70;58.60;;;;;;5029626;28;19933;-71
2021/07/21 10:30:39;;;;;;;;;;;22.70;59.30;;;;;;5028266;28;20020;-71
2021/07/21 10:33:07;;;;;;;;;;;22.70;58.40;;;;;;5029628;28;19933;-70
2021/07/21 10:35:34;;;;;;;;;;;22.70;58.20;;;;;;5029673;28;19968;-71
2021/07/21 10:38:03;;;;;;;;;;;22.70;57.10;;;;;;5030041;28;19936;-71
2021/07/21 10:40:32;;;;;;;;;;;22.80;58.40;;;;;;5028923;28;19933;-71
2021/07/21 10:43:00;;;;;;;;;;;22.80;58.60;;;;;;5027252;28;20240;-71
2021/07/21 10:45:33;;;;;;;;;;;22.80;58.60;;;;;;5027285;28;19932;-71
2021/07/21 10:48:33;;;;;;;;;;;22.90;58.30;;;;;;5029366;28;20036;-70
2021/07/21 10:51:09;;;;;;;;;;;22.80;60.10;;;;;;5028918;28;19936;-71
2021/07/21 10:54:03;;;;;;;;;;;22.80;59.70;;;;;;5028657;28;19932;-70
2021/07/21 10:59:21;;;;;;;;;;;22.80;58.50;;;;;;5026336;28;20087;-70
2021/07/21 11:01:50;;;;;;;;;;;22.90;59.30;;;;;;5030202;28;19971;-71
2021/07/21 11:04:19;;;;;;;;;;;22.90;57.70;;;;;;5033073;28;19933;-70
2021/07/21 11:06:47;;;;;;;;;;;23.00;56.80;;;;;;5028600;28;20779;-71
2021/07/21 11:09:17;;;;;;;;;;;23.00;57.40;;;;;;5026001;28;19944;-71
2021/07/21 11:11:45;;;;;;;;;;;23.00;58.50;;;;;;5027122;28;19933;-70
2021/07/21 11:14:16;;;;;;;;;;;23.00;58.00;;;;;;5029256;28;19955;-71
2021/07/21 11:16:50;;;;;;;;;;;23.00;59.00;;;;;;5029377;28;19929;-70
2021/07/21 11:19:34;;;;;;;;;;;23.00;57.90;;;;;;5028181;28;19936;-70
2021/07/21 11:22:02;;;;;;;;;;;23.00;58.00;;;;;;5025727;28;19929;-70
2021/07/21 11:24:30;;;;;;;;;;;23.00;57.50;;;;;;5029824;28;20035;-71
2021/07/21 11:26:57;;;;;;;;;;;23.00;58.40;;;;;;5028509;28;19936;-71
2021/07/21 11:29:29;;;;;;;;;;;23.00;60.40;;;;;;5027774;28;20070;-71
2021/07/21 11:31:58;;;;;;;;;;;23.00;59.60;;;;;;5026612;28;19933;-71
2021/07/21 11:34:29;;;;;;;;;;;23.00;61.00;;;;;;5028178;28;19951;-71
2021/07/21 11:36:59;;;;;;;;;;;23.00;61.10;;;;;;5030021;28;20511;-71
2021/07/21 11:39:41;;;;;;;;;;;23.00;60.80;;;;;;5029104;28;19940;-71
2021/07/21 11:45:05;;;;;;;;;;;23.10;59.30;;;;;;5027623;28;19940;-71
2021/07/21 11:47:37;;;;;;;;;;;23.10;59.60;;;;;;5026655;28;19940;-71
2021/07/21 11:50:10;;;;;;;;;;;23.10;59.10;;;;;;5028385;28;19945;-71
2021/07/21 11:52:37;;;;;;;;;;;23.20;58.60;;;;;;5028813;28;19960;-71
2021/07/21 11:55:05;;;;;;;;;;;23.10;58.90;;;;;;5027976;28;19933;-71
2021/07/21 11:57:35;;;;;;;;;;;23.10;59.20;;;;;;5030060;28;20011;-71
2021/07/21 12:00:04;;;;;;;;;;;23.10;60.10;;;;;;5034546;28;19933;-71
2021/07/21 12:02:31;;;;;;;;;;;23.10;61.00;;;;;;5032569;28;19937;-71
2021/07/21 12:05:03;;;;;;;;;;;23.10;60.20;;;;;;5035047;28;19999;-71
2021/07/21 12:07:35;;;;;;;;;;;23.20;60.40;;;;;;5035337;28;19929;-72
2021/07/21 12:10:10;;;;;;;;;;;23.10;56.70;;;;;;5030013;28;19928;-72
2021/07/21 12:12:37;;;;;;;;;;;23.20;59.00;;;;;;5035071;28;19965;-71
2021/07/21 12:15:06;;;;;;;;;;;23.20;59.90;;;;;;5037233;28;19937;-72
2021/07/21 12:17:33;;;;;;;;;;;23.20;57.30;;;;;;5032573;28;19933;-71
2021/07/21 12:20:01;;;;;;;;;;;23.20;58.30;;;;;;5036007;28;19935;-72
2021/07/21 12:22:28;;;;;;;;;;;23.20;57.40;;;;;;5034017;28;20016;-72
2021/07/21 12:24:57;;;;;;;;;;;23.30;57.10;;;;;;5034369;28;20032;-72
2021/07/21 12:27:23;;;;;;;;;;;23.30;56.30;;;;;;5031048;28;19939;-72
2021/07/21 12:29:50;;;;;;;;;;;23.30;56.00;;;;;;5032597;28;19936;-71
2021/07/21 12:32:18;;;;;;;;;;;23.30;55.10;;;;;;5032877;28;20023;-72
2021/07/21 12:34:49;;;;;;;;;;;23.40;55.60;;;;;;5034762;28;20023;-71
2021/07/21 12:37:17;;;;;;;;;;;23.50;54.20;;;;;;5033944;28;19933;-71
2021/07/21 12:39:45;;;;;;;;;;;23.70;54.40;;;;;;5031548;28;19937;-72
2021/07/21 12:42:13;;;;;;;;;;;23.80;54.20;;;;;;5034556;28;19972;-72
2021/07/21 12:44:43;;;;;;;;;;;23.90;55.00;;;;;;5033160;28;19966;-71
2021/07/21 12:47:11;;;;;;;;;;;23.90;54.80;;;;;;5035188;28;19964;-72
2021/07/21 12:49:39;;;;;;;;;;;24.00;55.30;;;;;;5033829;28;19937;-72
2021/07/21 12:52:09;;;;;;;;;;;24.00;55.80;;;;;;5034532;28;20015;-71
2021/07/21 12:54:36;;;;;;;;;;;24.00;55.90;;;;;;5034963;28;20309;-72
2021/07/21 12:57:03;;;;;;;;;;;24.00;55.80;;;;;;5038256;28;20399;-71
2021/07/21 12:59:34;;;;;;;;;;;24.00;55.20;;;;;;5037067;28;20019;-71
2021/07/21 13:02:07;;;;;;;;;;;24.00;55.60;;;;;;5039275;28;20382;-71
2021/07/21 13:04:34;;;;;;;;;;;24.00;56.70;;;;;;5036710;28;20020;-71
2021/07/21 13:07:08;;;;;;;;;;;24.00;55.40;;;;;;5038932;28;19933;-72
2021/07/21 13:09:36;;;;;;;;;;;24.00;56.10;;;;;;5037539;28;19940;-72
2021/07/21 13:12:13;;;;;;;;;;;24.00;56.40;;;;;;5040057;28;19955;-72
2021/07/21 13:14:40;;;;;;;;;;;24.00;55.30;;;;;;5038072;28;19936;-71
2021/07/21 13:17:09;;;;;;;;;;;23.90;54.70;;;;;;5036894;28;20411;-72
2021/07/21 13:19:36;;;;;;;;;;;23.90;55.50;;;;;;5037704;28;20032;-72
2021/07/21 13:22:03;;;;;;;;;;;23.90;55.30;;;;;;5038358;28;20035;-72
2021/07/21 13:24:38;;;;;;;;;;;23.90;55.50;;;;;;5038614;28;19932;-72
2021/07/21 13:27:06;;;;;;;;;;;23.90;55.80;;;;;;5039834;28;19952;-71
2021/07/21 13:29:33;;;;;;;;;;;23.90;55.50;;;;;;5037790;28;20359;-71
2021/07/21 13:32:03;;;;;;;;;;;23.90;54.60;;;;;;5038248;28;19983;-72
2021/07/21 13:34:34;;;;;;;;;;;23.90;54.70;;;;;;5038334;28;20040;-72
2021/07/21 13:37:02;;;;;;;;;;;23.90;55.10;;;;;;5036948;28;20490;-72
2021/07/21 13:39:42;;;;;;;;;;;23.90;55.50;;;;;;5037799;28;20350;-72
2021/07/21 13:42:18;;;;;;;;;;;23.90;56.10;;;;;;5037183;28;20016;-73
2021/07/21 13:44:48;;;;;;;;;;;23.90;55.10;;;;;;5037952;28;19928;-72
2021/07/21 13:47:14;;;;;;;;;;;23.90;55.20;;;;;;5037919;28;20038;-70
2021/07/21 13:49:43;;;;;;;;;;;23.90;55.90;;;;;;5036205;28;20432;-72
2021/07/21 13:52:11;;;;;;;;;;;23.90;56.50;;;;;;5034742;28;19968;-71
2021/07/21 13:54:41;;;;;;;;;;;23.90;56.50;;;;;;5036781;28;19932;-71
2021/07/21 13:57:09;;;;;;;;;;;23.90;56.70;;;;;;5037011;28;20329;-71
2021/07/21 13:59:37;;;;;;;;;;;23.90;55.40;;;;;;5037144;28;20027;-71
2021/07/21 14:02:04;;;;;;;;;;;23.90;54.40;;;;;;5037155;28;20704;-71
2021/07/21 14:04:31;;;;;;;;;;;23.90;55.10;;;;;;5037350;28;19975;-70
2021/07/21 14:06:58;;;;;;;;;;;23.90;55.10;;;;;;5035411;28;19929;-71
2021/07/21 14:09:25;;;;;;;;;;;23.90;55.40;;;;;;5035331;28;19933;-70
2021/07/21 14:11:53;;;;;;;;;;;23.90;55.90;;;;;;5036453;28;19968;-70
2021/07/21 14:14:20;;;;;;;;;;;23.90;56.30;;;;;;5037880;28;19983;-69
2021/07/21 14:16:47;;;;;;;;;;;23.90;56.30;;;;;;5035685;28;19939;-69
2021/07/21 14:19:14;;;;;;;;;;;23.90;56.30;;;;;;5035349;28;20315;-70
2021/07/21 14:21:41;;;;;;;;;;;23.90;55.70;;;;;;5035696;28;20047;-69
2021/07/21 14:24:08;;;;;;;;;;;23.90;55.60;;;;;;5035312;28;19979;-69
2021/07/21 14:26:35;;;;;;;;;;;23.90;54.50;;;;;;5036088;28;20395;-70
2021/07/21 14:29:03;;;;;;;;;;;23.90;54.70;;;;;;5035368;28;19979;-70
2021/07/21 14:31:30;;;;;;;;;;;23.90;54.20;;;;;;5035105;28;20030;-71
2021/07/21 14:34:07;;;;;;;;;;;23.90;55.00;;;;;;5035747;28;20303;-70